sensor_id;sensor_type;location;lat;lon;timestamp;P1;durP1;ratioP1;P2;durP2;ratioP2
19804;SDS011;10062;51.052;13.756;2023-04-16T00:01:07;17.30;;;11.50;;
19804;SDS011;10062;51.052;13.756;2023-04-16T00:03:39;15.07;;;10.43;;
19804;SDS011;10062;51.052;13.756;2023-04-16T00:06:11;15.67;;;10.17;;
19804;SDS011;10062;51.052;13.756;2023-04-16T00:08:44;12.00;;;10.13;;
19804;SDS011;10062;51.052;13.756;2023-04-16T00:11:15;13.90;;;10.10;;
19804;SDS011;10062;51.052;13.756;2023-04-16T00:13:47;16.50;;;10.00;;
19804;SDS011;10062;51.052;13.756;2023-04-16T00:16:19;14.53;;;10.03;;
19804;SDS011;10062;51.052;13.756;2023-04-16T00:18:51;16.30;;;10.23;;
19804;SDS011;10062;51.052;13.756;2023-04-16T00:21:22;16.57;;;11.20;;
19804;SDS011;10062;51.052;13.756;2023-04-16T00:23:56;15.43;;;10.93;;
19804;SDS011;10062;51.052;13.756;2023-04-16T00:26:28;15.67;;;11.20;;
19804;SDS011;10062;51.052;13.756;2023-04-16T00:29:00;17.03;;;11.03;;
19804;SDS011;10062;51.052;13.756;2023-04-16T00:31:32;18.00;;;11.40;;
19804;SDS011;10062;51.052;13.756;2023-04-16T00:34:06;17.27;;;11.73;;
19804;SDS011;10062;51.052;13.756;2023-04-16T00:36:38;18.47;;;12.80;;
19804;SDS011;10062;51.052;13.756;2023-04-16T00:39:11;16.53;;;11.20;;
19804;SDS011;10062;51.052;13.756;2023-04-16T00:41:43;15.30;;;10.83;;
19804;SDS011;10062;51.052;13.756;2023-04-16T00:44:14;15.13;;;11.00;;
19804;SDS011;10062;51.052;13.756;2023-04-16T00:46:46;17.70;;;12.27;;
19804;SDS011;10062;51.052;13.756;2023-04-16T00:49:18;15.97;;;11.77;;
19804;SDS011;10062;51.052;13.756;2023-04-16T00:51:50;19.80;;;11.93;;
19804;SDS011;10062;51.052;13.756;2023-04-16T00:54:23;19.37;;;11.77;;
19804;SDS011;10062;51.052;13.756;2023-04-16T00:56:55;17.77;;;11.20;;
19804;SDS011;10062;51.052;13.756;2023-04-16T00:59:27;16.97;;;11.43;;
19804;SDS011;10062;51.052;13.756;2023-04-16T01:01:59;16.67;;;11.63;;
19804;SDS011;10062;51.052;13.756;2023-04-16T01:04:31;15.63;;;11.33;;
19804;SDS011;10062;51.052;13.756;2023-04-16T01:07:03;14.80;;;10.03;;
19804;SDS011;10062;51.052;13.756;2023-04-16T01:09:36;15.57;;;11.20;;
19804;SDS011;10062;51.052;13.756;2023-04-16T01:12:08;15.07;;;11.00;;
19804;SDS011;10062;51.052;13.756;2023-04-16T01:14:39;18.27;;;11.40;;
19804;SDS011;10062;51.052;13.756;2023-04-16T01:17:11;15.87;;;10.63;;
19804;SDS011;10062;51.052;13.756;2023-04-16T01:19:43;16.87;;;11.50;;
19804;SDS011;10062;51.052;13.756;2023-04-16T01:22:16;17.30;;;12.47;;
19804;SDS011;10062;51.052;13.756;2023-04-16T01:24:47;14.03;;;10.30;;
19804;SDS011;10062;51.052;13.756;2023-04-16T01:27:19;15.23;;;11.13;;
19804;SDS011;10062;51.052;13.756;2023-04-16T01:29:51;15.80;;;10.90;;
19804;SDS011;10062;51.052;13.756;2023-04-16T01:32:30;16.77;;;11.30;;
19804;SDS011;10062;51.052;13.756;2023-04-16T01:35:02;18.27;;;11.40;;
19804;SDS011;10062;51.052;13.756;2023-04-16T01:37:35;17.77;;;11.03;;
19804;SDS011;10062;51.052;13.756;2023-04-16T01:40:07;16.23;;;11.83;;
19804;SDS011;10062;51.052;13.756;2023-04-16T01:42:39;16.90;;;11.97;;
19804;SDS011;10062;51.052;13.756;2023-04-16T01:45:11;17.77;;;10.87;;
19804;SDS011;10062;51.052;13.756;2023-04-16T01:47:42;14.37;;;9.97;;
19804;SDS011;10062;51.052;13.756;2023-04-16T01:50:15;15.63;;;11.17;;
19804;SDS011;10062;51.052;13.756;2023-04-16T01:52:48;17.20;;;11.23;;
19804;SDS011;10062;51.052;13.756;2023-04-16T01:55:20;17.00;;;10.63;;
19804;SDS011;10062;51.052;13.756;2023-04-16T01:57:51;17.80;;;10.77;;
19804;SDS011;10062;51.052;13.756;2023-04-16T02:00:25;14.73;;;10.63;;
19804;SDS011;10062;51.052;13.756;2023-04-16T02:02:57;14.53;;;10.27;;
19804;SDS011;10062;51.052;13.756;2023-04-16T02:05:31;14.43;;;10.43;;
19804;SDS011;10062;51.052;13.756;2023-04-16T02:08:04;14.47;;;10.33;;
19804;SDS011;10062;51.052;13.756;2023-04-16T02:10:36;14.53;;;9.67;;
19804;SDS011;10062;51.052;13.756;2023-04-16T02:13:08;15.97;;;9.90;;
19804;SDS011;10062;51.052;13.756;2023-04-16T02:15:43;15.70;;;10.00;;
19804;SDS011;10062;51.052;13.756;2023-04-16T02:18:16;14.57;;;10.03;;
19804;SDS011;10062;51.052;13.756;2023-04-16T02:20:48;16.33;;;9.90;;
19804;SDS011;10062;51.052;13.756;2023-04-16T02:23:22;13.87;;;9.20;;
19804;SDS011;10062;51.052;13.756;2023-04-16T02:25:54;15.77;;;10.77;;
19804;SDS011;10062;51.052;13.756;2023-04-16T02:28:27;11.67;;;9.13;;
19804;SDS011;10062;51.052;13.756;2023-04-16T02:30:58;14.23;;;9.80;;
19804;SDS011;10062;51.052;13.756;2023-04-16T02:33:34;13.03;;;9.60;;
19804;SDS011;10062;51.052;13.756;2023-04-16T02:36:07;12.60;;;8.83;;
19804;SDS011;10062;51.052;13.756;2023-04-16T02:38:41;14.77;;;10.00;;
19804;SDS011;10062;51.052;13.756;2023-04-16T02:41:13;14.97;;;9.20;;
19804;SDS011;10062;51.052;13.756;2023-04-16T02:43:45;15.30;;;10.00;;
19804;SDS011;10062;51.052;13.756;2023-04-16T02:46:17;14.13;;;9.80;;
19804;SDS011;10062;51.052;13.756;2023-04-16T02:48:49;15.10;;;9.17;;
19804;SDS011;10062;51.052;13.756;2023-04-16T02:51:21;14.90;;;8.70;;
19804;SDS011;10062;51.052;13.756;2023-04-16T02:53:54;14.67;;;9.00;;
19804;SDS011;10062;51.052;13.756;2023-04-16T02:56:25;12.97;;;9.27;;
19804;SDS011;10062;51.052;13.756;2023-04-16T02:58:57;13.50;;;9.33;;
19804;SDS011;10062;51.052;13.756;2023-04-16T03:01:29;14.73;;;9.00;;
19804;SDS011;10062;51.052;13.756;2023-04-16T03:04:01;14.67;;;8.63;;
19804;SDS011;10062;51.052;13.756;2023-04-16T03:06:32;13.07;;;9.47;;
19804;SDS011;10062;51.052;13.756;2023-04-16T03:09:05;12.97;;;8.70;;
19804;SDS011;10062;51.052;13.756;2023-04-16T03:11:37;12.57;;;9.03;;
19804;SDS011;10062;51.052;13.756;2023-04-16T03:14:09;14.27;;;8.83;;
19804;SDS011;10062;51.052;13.756;2023-04-16T03:16:40;13.93;;;8.87;;
19804;SDS011;10062;51.052;13.756;2023-04-16T03:19:12;14.90;;;8.90;;
19804;SDS011;10062;51.052;13.756;2023-04-16T03:21:44;11.93;;;8.20;;
19804;SDS011;10062;51.052;13.756;2023-04-16T03:24:17;12.43;;;9.03;;
19804;SDS011;10062;51.052;13.756;2023-04-16T03:26:52;12.33;;;8.40;;
19804;SDS011;10062;51.052;13.756;2023-04-16T03:29:26;11.50;;;8.70;;
19804;SDS011;10062;51.052;13.756;2023-04-16T03:31:59;13.37;;;8.70;;
19804;SDS011;10062;51.052;13.756;2023-04-16T03:34:30;12.83;;;8.50;;
19804;SDS011;10062;51.052;13.756;2023-04-16T03:37:02;11.13;;;8.57;;
19804;SDS011;10062;51.052;13.756;2023-04-16T03:39:36;11.33;;;8.17;;
19804;SDS011;10062;51.052;13.756;2023-04-16T03:42:08;12.57;;;8.77;;
19804;SDS011;10062;51.052;13.756;2023-04-16T03:44:39;15.40;;;8.33;;
19804;SDS011;10062;51.052;13.756;2023-04-16T03:47:12;11.97;;;8.57;;
19804;SDS011;10062;51.052;13.756;2023-04-16T03:49:44;15.57;;;8.43;;
19804;SDS011;10062;51.052;13.756;2023-04-16T03:52:16;15.40;;;10.40;;
19804;SDS011;10062;51.052;13.756;2023-04-16T03:54:49;12.93;;;8.57;;
19804;SDS011;10062;51.052;13.756;2023-04-16T03:57:27;12.17;;;8.60;;
19804;SDS011;10062;51.052;13.756;2023-04-16T04:00:05;14.67;;;8.97;;
19804;SDS011;10062;51.052;13.756;2023-04-16T04:02:56;15.00;;;8.77;;
19804;SDS011;10062;51.052;13.756;2023-04-16T04:05:28;14.97;;;8.63;;
19804;SDS011;10062;51.052;13.756;2023-04-16T04:08:01;12.03;;;8.03;;
19804;SDS011;10062;51.052;13.756;2023-04-16T04:10:36;13.20;;;8.43;;
19804;SDS011;10062;51.052;13.756;2023-04-16T04:13:09;12.73;;;8.80;;
19804;SDS011;10062;51.052;13.756;2023-04-16T04:15:41;14.30;;;9.03;;
19804;SDS011;10062;51.052;13.756;2023-04-16T04:18:13;13.97;;;8.50;;
19804;SDS011;10062;51.052;13.756;2023-04-16T04:20:47;12.60;;;8.80;;
19804;SDS011;10062;51.052;13.756;2023-04-16T04:23:21;14.63;;;8.43;;
19804;SDS011;10062;51.052;13.756;2023-04-16T04:25:54;14.90;;;8.87;;
19804;SDS011;10062;51.052;13.756;2023-04-16T04:28:28;15.50;;;9.37;;
19804;SDS011;10062;51.052;13.756;2023-04-16T04:31:00;12.93;;;8.43;;
19804;SDS011;10062;51.052;13.756;2023-04-16T04:33:34;14.33;;;9.00;;
19804;SDS011;10062;51.052;13.756;2023-04-16T04:36:06;13.30;;;9.37;;
19804;SDS011;10062;51.052;13.756;2023-04-16T04:38:39;13.83;;;8.93;;
19804;SDS011;10062;51.052;13.756;2023-04-16T04:41:12;15.53;;;10.00;;
19804;SDS011;10062;51.052;13.756;2023-04-16T04:43:44;13.50;;;8.83;;
19804;SDS011;10062;51.052;13.756;2023-04-16T04:46:16;14.60;;;9.10;;
19804;SDS011;10062;51.052;13.756;2023-04-16T04:48:47;16.57;;;9.43;;
19804;SDS011;10062;51.052;13.756;2023-04-16T04:51:20;13.23;;;8.70;;
19804;SDS011;10062;51.052;13.756;2023-04-16T04:53:52;16.10;;;9.60;;
19804;SDS011;10062;51.052;13.756;2023-04-16T04:56:25;13.17;;;8.97;;
19804;SDS011;10062;51.052;13.756;2023-04-16T04:58:58;16.43;;;9.67;;
19804;SDS011;10062;51.052;13.756;2023-04-16T05:01:29;16.77;;;10.13;;
19804;SDS011;10062;51.052;13.756;2023-04-16T05:04:01;18.27;;;9.80;;
19804;SDS011;10062;51.052;13.756;2023-04-16T05:06:33;17.13;;;11.47;;
19804;SDS011;10062;51.052;13.756;2023-04-16T05:09:04;17.87;;;11.10;;
19804;SDS011;10062;51.052;13.756;2023-04-16T05:11:41;14.07;;;9.67;;
19804;SDS011;10062;51.052;13.756;2023-04-16T05:14:13;18.93;;;11.57;;
19804;SDS011;10062;51.052;13.756;2023-04-16T05:16:45;18.47;;;11.93;;
19804;SDS011;10062;51.052;13.756;2023-04-16T05:19:16;17.47;;;9.70;;
19804;SDS011;10062;51.052;13.756;2023-04-16T05:21:48;17.60;;;10.40;;
19804;SDS011;10062;51.052;13.756;2023-04-16T05:24:20;14.97;;;9.07;;
19804;SDS011;10062;51.052;13.756;2023-04-16T05:26:53;17.30;;;11.17;;
19804;SDS011;10062;51.052;13.756;2023-04-16T05:29:25;22.00;;;11.53;;
19804;SDS011;10062;51.052;13.756;2023-04-16T05:31:57;18.50;;;11.13;;
19804;SDS011;10062;51.052;13.756;2023-04-16T05:34:29;17.23;;;9.63;;
19804;SDS011;10062;51.052;13.756;2023-04-16T05:37:00;20.93;;;11.17;;
19804;SDS011;10062;51.052;13.756;2023-04-16T05:39:32;19.53;;;11.10;;
19804;SDS011;10062;51.052;13.756;2023-04-16T05:42:05;18.67;;;11.43;;
19804;SDS011;10062;51.052;13.756;2023-04-16T05:44:36;17.27;;;10.63;;
19804;SDS011;10062;51.052;13.756;2023-04-16T05:47:08;15.73;;;10.27;;
19804;SDS011;10062;51.052;13.756;2023-04-16T05:49:40;19.23;;;11.70;;
19804;SDS011;10062;51.052;13.756;2023-04-16T05:52:11;15.83;;;10.00;;
19804;SDS011;10062;51.052;13.756;2023-04-16T05:54:44;16.33;;;10.63;;
19804;SDS011;10062;51.052;13.756;2023-04-16T05:57:16;16.47;;;10.10;;
19804;SDS011;10062;51.052;13.756;2023-04-16T05:59:48;17.47;;;10.13;;
19804;SDS011;10062;51.052;13.756;2023-04-16T06:02:20;17.27;;;10.53;;
19804;SDS011;10062;51.052;13.756;2023-04-16T06:04:51;15.30;;;9.40;;
19804;SDS011;10062;51.052;13.756;2023-04-16T06:07:23;19.87;;;11.77;;
19804;SDS011;10062;51.052;13.756;2023-04-16T06:09:55;16.10;;;9.87;;
19804;SDS011;10062;51.052;13.756;2023-04-16T06:12:28;18.10;;;10.77;;
19804;SDS011;10062;51.052;13.756;2023-04-16T06:15:00;15.10;;;9.37;;
19804;SDS011;10062;51.052;13.756;2023-04-16T06:17:32;14.77;;;9.73;;
19804;SDS011;10062;51.052;13.756;2023-04-16T06:20:04;16.13;;;9.10;;
19804;SDS011;10062;51.052;13.756;2023-04-16T06:22:37;19.13;;;10.97;;
19804;SDS011;10062;51.052;13.756;2023-04-16T06:25:08;14.40;;;9.47;;
19804;SDS011;10062;51.052;13.756;2023-04-16T06:27:41;18.80;;;11.10;;
19804;SDS011;10062;51.052;13.756;2023-04-16T06:30:13;17.90;;;9.77;;
19804;SDS011;10062;51.052;13.756;2023-04-16T06:32:45;15.30;;;9.97;;
19804;SDS011;10062;51.052;13.756;2023-04-16T06:35:17;15.33;;;10.27;;
19804;SDS011;10062;51.052;13.756;2023-04-16T06:37:49;16.13;;;9.93;;
19804;SDS011;10062;51.052;13.756;2023-04-16T06:40:21;17.17;;;9.37;;
19804;SDS011;10062;51.052;13.756;2023-04-16T06:42:54;17.20;;;10.00;;
19804;SDS011;10062;51.052;13.756;2023-04-16T06:45:26;15.20;;;10.10;;
19804;SDS011;10062;51.052;13.756;2023-04-16T06:47:58;16.00;;;9.67;;
19804;SDS011;10062;51.052;13.756;2023-04-16T06:50:30;15.83;;;9.87;;
19804;SDS011;10062;51.052;13.756;2023-04-16T06:53:02;17.63;;;11.13;;
19804;SDS011;10062;51.052;13.756;2023-04-16T06:55:33;14.90;;;9.57;;
19804;SDS011;10062;51.052;13.756;2023-04-16T06:58:06;15.60;;;10.07;;
19804;SDS011;10062;51.052;13.756;2023-04-16T07:00:38;19.07;;;10.23;;
19804;SDS011;10062;51.052;13.756;2023-04-16T07:03:10;17.53;;;11.00;;
19804;SDS011;10062;51.052;13.756;2023-04-16T07:05:41;16.80;;;11.40;;
19804;SDS011;10062;51.052;13.756;2023-04-16T07:08:13;14.33;;;10.17;;
19804;SDS011;10062;51.052;13.756;2023-04-16T07:10:44;21.33;;;10.20;;
19804;SDS011;10062;51.052;13.756;2023-04-16T07:13:17;17.03;;;10.90;;
19804;SDS011;10062;51.052;13.756;2023-04-16T07:15:49;16.73;;;10.63;;
19804;SDS011;10062;51.052;13.756;2023-04-16T07:18:21;14.17;;;9.93;;
19804;SDS011;10062;51.052;13.756;2023-04-16T07:20:52;24.00;;;14.13;;
19804;SDS011;10062;51.052;13.756;2023-04-16T07:23:24;18.27;;;11.87;;
19804;SDS011;10062;51.052;13.756;2023-04-16T07:25:56;77.20;;;39.57;;
19804;SDS011;10062;51.052;13.756;2023-04-16T07:28:29;17.07;;;11.70;;
19804;SDS011;10062;51.052;13.756;2023-04-16T07:31:01;17.53;;;11.67;;
19804;SDS011;10062;51.052;13.756;2023-04-16T07:33:33;15.47;;;10.07;;
19804;SDS011;10062;51.052;13.756;2023-04-16T07:36:05;15.73;;;10.93;;
19804;SDS011;10062;51.052;13.756;2023-04-16T07:38:37;18.67;;;11.77;;
19804;SDS011;10062;51.052;13.756;2023-04-16T07:41:08;17.30;;;11.60;;
19804;SDS011;10062;51.052;13.756;2023-04-16T07:43:41;17.97;;;10.53;;
19804;SDS011;10062;51.052;13.756;2023-04-16T07:46:13;18.03;;;11.10;;
19804;SDS011;10062;51.052;13.756;2023-04-16T07:48:45;18.63;;;11.87;;
19804;SDS011;10062;51.052;13.756;2023-04-16T07:51:16;20.13;;;12.10;;
19804;SDS011;10062;51.052;13.756;2023-04-16T07:53:48;18.27;;;10.90;;
19804;SDS011;10062;51.052;13.756;2023-04-16T07:56:19;18.17;;;11.20;;
19804;SDS011;10062;51.052;13.756;2023-04-16T07:58:52;16.30;;;11.57;;
19804;SDS011;10062;51.052;13.756;2023-04-16T08:01:24;21.20;;;13.67;;
19804;SDS011;10062;51.052;13.756;2023-04-16T08:03:56;22.60;;;13.87;;
19804;SDS011;10062;51.052;13.756;2023-04-16T08:06:28;17.63;;;12.57;;
19804;SDS011;10062;51.052;13.756;2023-04-16T08:09:00;18.40;;;11.47;;
19804;SDS011;10062;51.052;13.756;2023-04-16T08:11:32;28.90;;;19.33;;
19804;SDS011;10062;51.052;13.756;2023-04-16T08:14:05;17.17;;;12.77;;
19804;SDS011;10062;51.052;13.756;2023-04-16T08:16:36;16.30;;;12.10;;
19804;SDS011;10062;51.052;13.756;2023-04-16T08:19:09;16.60;;;11.47;;
19804;SDS011;10062;51.052;13.756;2023-04-16T08:21:41;16.77;;;11.47;;
19804;SDS011;10062;51.052;13.756;2023-04-16T08:24:13;17.37;;;11.90;;
19804;SDS011;10062;51.052;13.756;2023-04-16T08:26:44;15.83;;;10.73;;
19804;SDS011;10062;51.052;13.756;2023-04-16T08:29:17;17.13;;;12.37;;
19804;SDS011;10062;51.052;13.756;2023-04-16T08:31:49;15.23;;;10.87;;
19804;SDS011;10062;51.052;13.756;2023-04-16T08:34:21;16.87;;;12.10;;
19804;SDS011;10062;51.052;13.756;2023-04-16T08:36:53;17.57;;;12.03;;
19804;SDS011;10062;51.052;13.756;2023-04-16T08:39:24;16.07;;;11.77;;
19804;SDS011;10062;51.052;13.756;2023-04-16T08:41:56;14.30;;;11.50;;
19804;SDS011;10062;51.052;13.756;2023-04-16T08:44:30;15.57;;;12.17;;
19804;SDS011;10062;51.052;13.756;2023-04-16T08:47:04;15.60;;;11.80;;
19804;SDS011;10062;51.052;13.756;2023-04-16T08:49:40;14.23;;;11.43;;
19804;SDS011;10062;51.052;13.756;2023-04-16T08:52:15;24.07;;;13.17;;
19804;SDS011;10062;51.052;13.756;2023-04-16T08:54:51;16.27;;;13.20;;
19804;SDS011;10062;51.052;13.756;2023-04-16T08:57:29;14.87;;;13.07;;
19804;SDS011;10062;51.052;13.756;2023-04-16T09:00:08;20.10;;;15.93;;
19804;SDS011;10062;51.052;13.756;2023-04-16T09:02:41;17.37;;;13.23;;
19804;SDS011;10062;51.052;13.756;2023-04-16T09:05:13;18.00;;;14.50;;
19804;SDS011;10062;51.052;13.756;2023-04-16T09:07:47;16.97;;;12.97;;
19804;SDS011;10062;51.052;13.756;2023-04-16T09:10:19;18.50;;;13.23;;
19804;SDS011;10062;51.052;13.756;2023-04-16T09:12:51;17.33;;;13.20;;
19804;SDS011;10062;51.052;13.756;2023-04-16T09:15:27;17.53;;;12.83;;
19804;SDS011;10062;51.052;13.756;2023-04-16T09:17:59;19.13;;;13.90;;
19804;SDS011;10062;51.052;13.756;2023-04-16T09:20:30;23.47;;;14.80;;
19804;SDS011;10062;51.052;13.756;2023-04-16T09:23:02;18.10;;;12.80;;
19804;SDS011;10062;51.052;13.756;2023-04-16T09:25:34;17.03;;;12.67;;
19804;SDS011;10062;51.052;13.756;2023-04-16T09:28:06;16.37;;;12.30;;
19804;SDS011;10062;51.052;13.756;2023-04-16T09:30:39;23.87;;;15.57;;
19804;SDS011;10062;51.052;13.756;2023-04-16T09:33:12;20.30;;;14.47;;
19804;SDS011;10062;51.052;13.756;2023-04-16T09:35:46;18.90;;;12.67;;
19804;SDS011;10062;51.052;13.756;2023-04-16T09:38:19;16.57;;;12.80;;
19804;SDS011;10062;51.052;13.756;2023-04-16T09:41:04;16.83;;;11.77;;
19804;SDS011;10062;51.052;13.756;2023-04-16T09:43:37;14.63;;;11.23;;
19804;SDS011;10062;51.052;13.756;2023-04-16T09:46:11;15.97;;;12.53;;
19804;SDS011;10062;51.052;13.756;2023-04-16T09:48:42;15.97;;;10.83;;
19804;SDS011;10062;51.052;13.756;2023-04-16T09:51:16;14.37;;;10.53;;
19804;SDS011;10062;51.052;13.756;2023-04-16T09:53:50;16.00;;;11.17;;
19804;SDS011;10062;51.052;13.756;2023-04-16T09:56:22;14.60;;;10.80;;
19804;SDS011;10062;51.052;13.756;2023-04-16T09:58:56;16.47;;;10.77;;
19804;SDS011;10062;51.052;13.756;2023-04-16T10:01:30;14.23;;;10.03;;
19804;SDS011;10062;51.052;13.756;2023-04-16T10:04:02;14.03;;;10.17;;
19804;SDS011;10062;51.052;13.756;2023-04-16T10:06:36;19.37;;;11.87;;
19804;SDS011;10062;51.052;13.756;2023-04-16T10:09:08;25.87;;;17.00;;
19804;SDS011;10062;51.052;13.756;2023-04-16T10:11:40;15.03;;;11.27;;
19804;SDS011;10062;51.052;13.756;2023-04-16T10:14:11;14.53;;;10.40;;
19804;SDS011;10062;51.052;13.756;2023-04-16T10:16:44;14.93;;;10.93;;
19804;SDS011;10062;51.052;13.756;2023-04-16T10:19:16;13.93;;;10.30;;
19804;SDS011;10062;51.052;13.756;2023-04-16T10:21:48;16.80;;;9.83;;
19804;SDS011;10062;51.052;13.756;2023-04-16T10:24:20;14.03;;;9.80;;
19804;SDS011;10062;51.052;13.756;2023-04-16T10:26:52;12.60;;;9.27;;
19804;SDS011;10062;51.052;13.756;2023-04-16T10:29:26;14.30;;;10.23;;
19804;SDS011;10062;51.052;13.756;2023-04-16T10:32:00;11.83;;;8.77;;
19804;SDS011;10062;51.052;13.756;2023-04-16T10:34:33;10.67;;;8.00;;
19804;SDS011;10062;51.052;13.756;2023-04-16T10:37:06;11.63;;;7.50;;
19804;SDS011;10062;51.052;13.756;2023-04-16T10:39:37;13.60;;;9.63;;
19804;SDS011;10062;51.052;13.756;2023-04-16T10:42:09;10.10;;;7.80;;
19804;SDS011;10062;51.052;13.756;2023-04-16T10:44:42;10.97;;;7.60;;
19804;SDS011;10062;51.052;13.756;2023-04-16T10:47:17;11.57;;;7.33;;
19804;SDS011;10062;51.052;13.756;2023-04-16T10:49:49;10.17;;;7.20;;
19804;SDS011;10062;51.052;13.756;2023-04-16T10:52:21;8.40;;;6.40;;
19804;SDS011;10062;51.052;13.756;2023-04-16T10:54:54;9.37;;;6.20;;
19804;SDS011;10062;51.052;13.756;2023-04-16T10:57:25;11.53;;;7.20;;
19804;SDS011;10062;51.052;13.756;2023-04-16T11:00:00;10.43;;;6.80;;
19804;SDS011;10062;51.052;13.756;2023-04-16T11:02:34;12.17;;;7.60;;
19804;SDS011;10062;51.052;13.756;2023-04-16T11:05:06;10.77;;;7.80;;
19804;SDS011;10062;51.052;13.756;2023-04-16T11:07:41;9.97;;;7.53;;
19804;SDS011;10062;51.052;13.756;2023-04-16T11:10:18;10.60;;;7.70;;
19804;SDS011;10062;51.052;13.756;2023-04-16T11:12:50;9.03;;;6.73;;
19804;SDS011;10062;51.052;13.756;2023-04-16T11:15:22;9.93;;;7.27;;
19804;SDS011;10062;51.052;13.756;2023-04-16T11:18:01;8.77;;;6.27;;
19804;SDS011;10062;51.052;13.756;2023-04-16T11:20:33;12.13;;;7.13;;
19804;SDS011;10062;51.052;13.756;2023-04-16T11:23:04;9.33;;;6.10;;
19804;SDS011;10062;51.052;13.756;2023-04-16T11:25:42;8.17;;;5.80;;
19804;SDS011;10062;51.052;13.756;2023-04-16T11:28:14;7.93;;;6.07;;
19804;SDS011;10062;51.052;13.756;2023-04-16T11:30:45;7.73;;;5.30;;
19804;SDS011;10062;51.052;13.756;2023-04-16T11:33:18;8.53;;;4.50;;
19804;SDS011;10062;51.052;13.756;2023-04-16T11:35:55;7.70;;;4.87;;
19804;SDS011;10062;51.052;13.756;2023-04-16T11:38:33;8.10;;;5.97;;
19804;SDS011;10062;51.052;13.756;2023-04-16T11:41:06;8.63;;;6.03;;
19804;SDS011;10062;51.052;13.756;2023-04-16T11:43:37;8.57;;;6.13;;
19804;SDS011;10062;51.052;13.756;2023-04-16T11:46:09;11.27;;;6.20;;
19804;SDS011;10062;51.052;13.756;2023-04-16T11:48:45;8.07;;;5.07;;
19804;SDS011;10062;51.052;13.756;2023-04-16T11:51:18;6.23;;;4.67;;
19804;SDS011;10062;51.052;13.756;2023-04-16T11:53:52;6.07;;;4.40;;
19804;SDS011;10062;51.052;13.756;2023-04-16T11:56:25;8.77;;;4.83;;
19804;SDS011;10062;51.052;13.756;2023-04-16T11:59:04;6.40;;;4.33;;
19804;SDS011;10062;51.052;13.756;2023-04-16T12:01:38;6.53;;;4.47;;
19804;SDS011;10062;51.052;13.756;2023-04-16T12:04:12;6.17;;;4.07;;
19804;SDS011;10062;51.052;13.756;2023-04-16T12:07:03;6.87;;;4.27;;
19804;SDS011;10062;51.052;13.756;2023-04-16T12:09:36;7.03;;;4.00;;
19804;SDS011;10062;51.052;13.756;2023-04-16T12:12:25;5.73;;;3.77;;
19804;SDS011;10062;51.052;13.756;2023-04-16T12:14:57;4.47;;;2.90;;
19804;SDS011;10062;51.052;13.756;2023-04-16T12:17:33;4.97;;;2.87;;
19804;SDS011;10062;51.052;13.756;2023-04-16T12:20:08;5.27;;;3.10;;
19804;SDS011;10062;51.052;13.756;2023-04-16T12:22:43;5.70;;;3.60;;
19804;SDS011;10062;51.052;13.756;2023-04-16T12:25:16;4.63;;;3.13;;
19804;SDS011;10062;51.052;13.756;2023-04-16T12:27:49;4.07;;;2.90;;
19804;SDS011;10062;51.052;13.756;2023-04-16T12:30:22;4.63;;;2.87;;
19804;SDS011;10062;51.052;13.756;2023-04-16T12:35:47;3.53;;;2.40;;
19804;SDS011;10062;51.052;13.756;2023-04-16T12:38:19;3.77;;;2.37;;
19804;SDS011;10062;51.052;13.756;2023-04-16T12:40:51;4.63;;;3.10;;
19804;SDS011;10062;51.052;13.756;2023-04-16T12:43:25;4.43;;;3.17;;
19804;SDS011;10062;51.052;13.756;2023-04-16T12:45:57;5.43;;;3.60;;
19804;SDS011;10062;51.052;13.756;2023-04-16T12:48:29;5.30;;;3.73;;
19804;SDS011;10062;51.052;13.756;2023-04-16T12:51:02;6.57;;;3.87;;
19804;SDS011;10062;51.052;13.756;2023-04-16T12:53:34;5.70;;;3.87;;
19804;SDS011;10062;51.052;13.756;2023-04-16T12:56:06;43.97;;;25.60;;
19804;SDS011;10062;51.052;13.756;2023-04-16T12:58:38;7.20;;;3.80;;
19804;SDS011;10062;51.052;13.756;2023-04-16T13:01:09;6.77;;;3.97;;
19804;SDS011;10062;51.052;13.756;2023-04-16T13:03:41;5.63;;;3.60;;
19804;SDS011;10062;51.052;13.756;2023-04-16T13:06:14;5.90;;;3.60;;
19804;SDS011;10062;51.052;13.756;2023-04-16T13:08:47;5.37;;;3.77;;
19804;SDS011;10062;51.052;13.756;2023-04-16T13:11:18;7.57;;;5.00;;
19804;SDS011;10062;51.052;13.756;2023-04-16T13:13:50;6.50;;;4.93;;
19804;SDS011;10062;51.052;13.756;2023-04-16T13:16:22;8.07;;;4.33;;
19804;SDS011;10062;51.052;13.756;2023-04-16T13:18:54;7.37;;;5.07;;
19804;SDS011;10062;51.052;13.756;2023-04-16T13:21:27;6.77;;;4.17;;
19804;SDS011;10062;51.052;13.756;2023-04-16T13:23:58;6.53;;;4.83;;
19804;SDS011;10062;51.052;13.756;2023-04-16T13:26:30;6.60;;;4.40;;
19804;SDS011;10062;51.052;13.756;2023-04-16T13:29:02;6.37;;;4.33;;
19804;SDS011;10062;51.052;13.756;2023-04-16T13:31:33;6.60;;;4.63;;
19804;SDS011;10062;51.052;13.756;2023-04-16T13:34:05;8.23;;;4.33;;
19804;SDS011;10062;51.052;13.756;2023-04-16T13:36:38;7.10;;;4.43;;
19804;SDS011;10062;51.052;13.756;2023-04-16T13:39:10;7.17;;;4.43;;
19804;SDS011;10062;51.052;13.756;2023-04-16T13:41:42;6.83;;;4.73;;
19804;SDS011;10062;51.052;13.756;2023-04-16T13:44:13;6.83;;;4.80;;
19804;SDS011;10062;51.052;13.756;2023-04-16T13:46:45;6.70;;;4.60;;
19804;SDS011;10062;51.052;13.756;2023-04-16T13:49:17;7.07;;;5.03;;
19804;SDS011;10062;51.052;13.756;2023-04-16T13:51:51;8.43;;;5.23;;
19804;SDS011;10062;51.052;13.756;2023-04-16T13:54:23;7.73;;;5.30;;
19804;SDS011;10062;51.052;13.756;2023-04-16T13:56:55;6.83;;;4.70;;
19804;SDS011;10062;51.052;13.756;2023-04-16T13:59:26;6.37;;;4.60;;
19804;SDS011;10062;51.052;13.756;2023-04-16T14:01:58;8.77;;;5.90;;
19804;SDS011;10062;51.052;13.756;2023-04-16T14:04:30;8.43;;;6.10;;
19804;SDS011;10062;51.052;13.756;2023-04-16T14:07:03;9.30;;;5.97;;
19804;SDS011;10062;51.052;13.756;2023-04-16T14:09:34;8.77;;;5.10;;
19804;SDS011;10062;51.052;13.756;2023-04-16T14:12:06;7.53;;;5.00;;
19804;SDS011;10062;51.052;13.756;2023-04-16T14:14:38;6.57;;;4.60;;
19804;SDS011;10062;51.052;13.756;2023-04-16T14:17:11;7.87;;;4.60;;
19804;SDS011;10062;51.052;13.756;2023-04-16T14:19:43;8.83;;;4.33;;
19804;SDS011;10062;51.052;13.756;2023-04-16T14:22:16;7.17;;;4.37;;
19804;SDS011;10062;51.052;13.756;2023-04-16T14:24:47;9.10;;;4.40;;
19804;SDS011;10062;51.052;13.756;2023-04-16T14:27:21;6.47;;;4.10;;
19804;SDS011;10062;51.052;13.756;2023-04-16T14:29:53;7.60;;;5.43;;
19804;SDS011;10062;51.052;13.756;2023-04-16T14:32:25;8.80;;;4.90;;
19804;SDS011;10062;51.052;13.756;2023-04-16T14:34:57;7.97;;;5.40;;
19804;SDS011;10062;51.052;13.756;2023-04-16T14:37:29;8.57;;;4.70;;
19804;SDS011;10062;51.052;13.756;2023-04-16T14:40:01;6.93;;;4.63;;
19804;SDS011;10062;51.052;13.756;2023-04-16T14:42:36;6.40;;;4.43;;
19804;SDS011;10062;51.052;13.756;2023-04-16T14:45:09;9.33;;;6.40;;
19804;SDS011;10062;51.052;13.756;2023-04-16T14:47:40;8.37;;;4.60;;
19804;SDS011;10062;51.052;13.756;2023-04-16T14:50:16;6.83;;;4.70;;
19804;SDS011;10062;51.052;13.756;2023-04-16T14:52:49;8.50;;;5.63;;